Aviation Digital Data Service (ADDS)

Output produced by METARs form (0651 UTC 28 September 2016)
found at http://aviationweather.gov/adds/metars/
 
KFNT 280538Z 2806/2906 VRB03KT 6SM -SHRA OVC060 
     FM281300 04005KT P6SM BKN120 OVC250 
     FM281600 06007KT P6SM BKN080 OVC150 
     PROB30 2817/2821 3SM SHRA OVC040 
     FM282100 06007KT P6SM OVC045